Time;durP1;ratioP1;P1;durP2;ratioP2;P2;SDS_P1;SDS_P2;PMS_P1;PMS_P2;Temp;Humidity;BMP_temperature;BMP_pressure;BME280_temperature;BME280_humidity;BME280_pressure;Samples;Min_cycle;Max_cycle;Signal;HPM_P1;HPM_P2
2021/10/09 00:00:40;;;;;;;8.80;4.80;;;;;;;15.91;62.31;101457.09;4978485;28;20537;-50
2021/10/09 00:03:06;;;;;;;8.25;4.07;;;;;;;15.90;62.19;101450.16;4960309;28;20035;-49
2021/10/09 00:05:33;;;;;;;7.75;4.38;;;;;;;15.90;62.50;101454.50;4979716;28;20047;-48
2021/10/09 00:08:00;;;;;;;6.47;3.70;;;;;;;15.91;61.72;101448.41;4976446;28;20054;-48
2021/10/09 00:10:28;;;;;;;8.85;4.63;;;;;;;15.89;62.07;101451.03;4983169;28;20054;-52
2021/10/09 00:12:55;;;;;;;8.05;4.70;;;;;;;15.89;62.36;101448.41;4980024;28;20057;-51
2021/10/09 00:15:22;;;;;;;6.68;4.15;;;;;;;15.89;61.90;101448.41;4981232;28;20043;-50
2021/10/09 00:17:52;;;;;;;8.23;4.57;;;;;;;15.89;61.89;101444.94;4981800;28;20078;-50
2021/10/09 00:20:18;;;;;;;6.82;4.03;;;;;;;15.87;61.90;101442.31;4980861;28;20050;-49
2021/10/09 00:22:48;;;;;;;6.35;3.78;;;;;;;15.87;62.08;101442.31;4980340;28;20075;-47
2021/10/09 00:25:15;;;;;;;7.10;3.75;;;;;;;15.87;61.76;101447.53;4980516;28;20105;-48
2021/10/09 00:27:41;;;;;;;8.25;5.05;;;;;;;15.87;62.33;101446.69;4981907;28;20049;-47
2021/10/09 00:30:08;;;;;;;8.52;4.55;;;;;;;15.87;62.44;101431.00;4979091;28;20122;-48
2021/10/09 00:32:35;;;;;;;7.40;4.35;;;;;;;15.86;61.74;101437.97;4985956;28;20054;-47
2021/10/09 00:35:02;;;;;;;8.07;4.47;;;;;;;15.86;62.08;101437.09;4977907;28;20118;-48
2021/10/09 00:37:29;;;;;;;6.97;3.28;;;;;;;15.85;61.92;101433.63;4980802;28;20403;-47
2021/10/09 00:39:56;;;;;;;7.88;4.72;;;;;;;15.85;61.95;101438.84;4979314;28;20101;-49
2021/10/09 00:42:23;;;;;;;7.82;4.57;;;;;;;15.86;62.26;101435.34;4979939;28;20049;-48
2021/10/09 00:44:50;;;;;;;8.68;4.75;;;;;;;15.85;62.19;101433.63;4980001;28;20050;-49
2021/10/09 00:47:17;;;;;;;7.82;4.03;;;;;;;15.85;61.87;101436.22;4978017;28;20051;-48
2021/10/09 00:49:44;;;;;;;8.52;4.15;;;;;;;15.85;61.85;101433.63;4987507;28;20050;-47
2021/10/09 00:52:11;;;;;;;10.18;5.78;;;;;;;15.84;62.09;101426.63;4979203;28;20055;-48
2021/10/09 00:54:43;;;;;;;8.70;4.93;;;;;;;15.82;62.13;101436.25;4978796;28;20047;-48
2021/10/09 00:57:16;;;;;;;8.88;4.95;;;;;;;15.82;62.57;101433.63;4980393;28;20073;-48
2021/10/09 00:59:45;;;;;;;8.48;4.43;;;;;;;15.83;62.47;101430.13;4984729;28;20046;-49
2021/10/09 01:02:13;;;;;;;19.08;8.98;;;;;;;15.84;63.08;101434.47;4984000;28;20042;-47
2021/10/09 01:04:43;;;;;;;9.25;5.43;;;;;;;15.84;62.15;101434.47;4980827;28;20050;-49
2021/10/09 01:07:10;;;;;;;15.98;6.95;;;;;;;15.83;62.09;101424.91;4980736;28;20054;-50
2021/10/09 01:09:37;;;;;;;8.65;4.80;;;;;;;15.84;62.06;101429.25;4981774;28;20050;-47
2021/10/09 01:12:04;;;;;;;8.60;4.53;;;;;;;15.82;62.08;101428.41;4994941;28;20054;-47
2021/10/09 01:14:30;;;;;;;7.88;4.85;;;;;;;15.82;61.95;101428.41;4982927;28;20055;-50
2021/10/09 01:16:57;;;;;;;9.15;4.63;;;;;;;15.83;62.17;101430.13;4984718;28;20050;-48
2021/10/09 01:19:23;;;;;;;8.48;4.55;;;;;;;15.82;62.56;101428.41;4983904;28;20056;-48
2021/10/09 01:21:50;;;;;;;9.35;4.43;;;;;;;15.83;62.34;101424.91;4982830;28;20091;-47
2021/10/09 01:24:18;;;;;;;9.80;5.35;;;;;;;15.82;62.55;101417.94;4966420;28;20134;-48
2021/10/09 01:26:46;;;;;;;10.52;4.75;;;;;;;15.81;62.06;101419.69;4978719;28;20133;-51
2021/10/09 01:29:14;;;;;;;8.77;4.63;;;;;;;15.80;62.21;101414.47;4981408;28;20050;-50
2021/10/09 01:31:42;;;;;;;8.15;4.80;;;;;;;15.81;61.99;101417.06;4985971;28;20106;-47
2021/10/09 01:34:09;;;;;;;7.10;3.35;;;;;;;15.80;62.26;101415.34;4983651;28;20591;-48
2021/10/09 01:36:39;;;;;;;8.73;4.30;;;;;;;15.79;61.77;101416.22;4981917;28;20114;-48
2021/10/09 01:39:08;;;;;;;7.88;4.10;;;;;;;15.80;62.42;101415.34;4985150;28;20050;-47
2021/10/09 01:41:39;;;;;;;8.38;4.68;;;;;;;15.79;62.45;101412.72;4982676;28;20057;-46
2021/10/09 01:44:06;;;;;;;9.82;5.00;;;;;;;15.80;61.89;101409.22;4983362;28;20117;-49
2021/10/09 01:46:33;;;;;;;8.82;5.03;;;;;;;15.80;62.18;101410.13;4983421;28;20078;-48
2021/10/09 01:49:00;;;;;;;12.43;5.88;;;;;;;15.80;61.91;101411.84;4978313;28;20046;-48
2021/10/09 01:51:28;;;;;;;9.23;5.30;;;;;;;15.79;61.70;101402.28;4966555;28;20458;-48
2021/10/09 01:53:55;;;;;;;8.75;5.03;;;;;;;15.79;62.31;101403.16;4981152;28;20042;-47
2021/10/09 01:56:21;;;;;;;8.82;4.80;;;;;;;15.78;62.30;101401.41;4984961;28;20050;-47
2021/10/09 01:58:48;;;;;;;10.25;5.55;;;;;;;15.79;62.05;101402.28;4984608;28;20054;-47
2021/10/09 02:01:15;;;;;;;9.80;5.90;;;;;;;15.79;62.38;101397.06;4985855;28;20054;-49
2021/10/09 02:03:42;;;;;;;9.55;4.30;;;;;;;15.77;62.01;101391.84;4983533;28;20426;-46
2021/10/09 02:06:09;;;;;;;11.90;5.20;;;;;;;15.78;62.17;101395.31;4986888;28;20078;-48
2021/10/09 02:08:36;;;;;;;17.42;7.88;;;;;;;15.78;62.51;101396.19;4982730;28;20114;-47
2021/10/09 02:11:06;;;;;;;17.45;8.25;;;;;;;15.76;62.45;101397.94;4982604;28;20112;-47
2021/10/09 02:13:57;;;;;;;10.63;6.00;;;;;;;15.77;62.63;101390.97;4979172;28;20042;-46
2021/10/09 02:16:46;;;;;;;9.32;4.80;;;;;;;15.76;62.46;101392.72;4945790;28;20073;-46
2021/10/09 02:24:10;;;;;;;10.15;5.35;;;;;;;15.76;62.71;101391.84;4985883;28;20062;-47
2021/10/09 02:25:02;;;;;;;10.48;5.32;;;;;;;15.76;62.69;101394.44;4976655;28;20066;-47
2021/10/09 02:27:26;;;;;;;7.75;4.50;;;;;;;15.76;62.08;101391.84;4987705;28;20058;-47
2021/10/09 02:29:53;;;;;;;12.10;5.43;;;;;;;15.75;62.61;101395.31;4986714;28;20470;-47
2021/10/09 02:32:20;;;;;;;19.90;9.57;;;;;;;15.74;62.75;101393.59;4978288;28;20050;-50
2021/10/09 02:34:48;;;;;;;16.42;7.78;;;;;;;15.75;62.64;101392.72;4982326;28;20097;-45
2021/10/09 02:37:15;;;;;;;12.77;6.45;;;;;;;15.76;63.00;101391.84;4981187;28;20046;-51
2021/10/09 02:39:41;;;;;;;10.48;5.47;;;;;;;15.76;62.83;101386.59;4982415;28;20668;-48
2021/10/09 02:42:08;;;;;;;9.18;4.88;;;;;;;15.75;62.86;101390.09;4986571;28;20050;-45
2021/10/09 02:44:34;;;;;;;13.98;7.65;;;;;;;15.75;62.46;101390.09;4982710;28;20118;-50
2021/10/09 02:47:01;;;;;;;17.55;8.05;;;;;;;15.75;62.45;101391.00;4955798;28;20114;-46
2021/10/09 02:49:28;;;;;;;15.80;7.72;;;;;;;15.75;62.46;101384.88;4976461;28;20054;-51
2021/10/09 02:51:54;;;;;;;11.57;6.05;;;;;;;15.75;62.57;101395.31;4979247;28;20051;-48
2021/10/09 02:54:21;;;;;;;22.15;10.05;;;;;;;15.75;63.04;101384.88;4984282;28;20038;-47
2021/10/09 02:56:47;;;;;;;12.95;6.55;;;;;;;15.75;62.40;101379.66;4978737;28;20077;-46
2021/10/09 02:59:14;;;;;;;12.13;6.18;;;;;;;15.74;62.29;101383.16;4980655;28;20495;-47
2021/10/09 03:01:41;;;;;;;10.43;4.88;;;;;;;15.74;62.50;101380.53;4967712;28;20412;-46
2021/10/09 03:04:07;;;;;;;14.55;7.75;;;;;;;15.73;62.60;101377.03;4967361;28;20060;-47
2021/10/09 03:06:34;;;;;;;11.38;5.28;;;;;;;15.74;62.74;101380.53;4986372;28;20113;-48
2021/10/09 03:09:02;;;;;;;8.23;5.05;;;;;;;15.72;62.41;101385.75;4984531;28;20047;-49
2021/10/09 03:11:28;;;;;;;10.15;5.47;;;;;;;15.73;62.66;101378.78;4982032;28;20050;-50
2021/10/09 03:13:55;;;;;;;9.73;5.35;;;;;;;15.73;62.48;101386.63;4985103;28;20081;-48
2021/10/09 03:16:24;;;;;;;8.50;5.03;;;;;;;15.71;62.04;101377.94;4982243;28;20502;-47
2021/10/09 03:18:51;;;;;;;10.75;5.03;;;;;;;15.71;62.75;101383.16;4980941;28;20422;-45
2021/10/09 03:21:17;;;;;;;9.65;4.90;;;;;;;15.71;62.50;101380.53;4985941;28;20097;-49
2021/10/09 03:23:44;;;;;;;9.75;5.70;;;;;;;15.70;62.69;101378.81;4982019;28;20051;-49
2021/10/09 03:26:10;;;;;;;10.85;5.20;;;;;;;15.68;62.17;101377.06;4981914;28;20046;-48
2021/10/09 03:28:37;;;;;;;9.98;5.38;;;;;;;15.66;62.67;101378.81;4981753;28;20046;-49
2021/10/09 03:31:04;;;;;;;9.73;5.03;;;;;;;15.66;62.16;101381.41;4985459;28;20046;-49
2021/10/09 03:33:30;;;;;;;8.82;5.10;;;;;;;15.63;62.29;101380.53;4981027;28;20054;-50
2021/10/09 03:35:57;;;;;;;11.13;5.35;;;;;;;15.62;61.85;101379.69;4981824;28;20118;-45
2021/10/09 03:38:24;;;;;;;10.90;5.57;;;;;;;15.60;61.76;101386.66;4983895;28;20109;-48
2021/10/09 03:40:57;;;;;;;9.07;4.30;;;;;;;15.58;62.43;101380.56;4983177;28;20495;-47
2021/10/09 03:43:26;;;;;;;9.82;5.35;;;;;;;15.55;61.73;101378.84;4988624;28;20104;-46
2021/10/09 03:46:00;;;;;;;9.77;5.15;;;;;;;15.53;62.39;101384.91;4988745;28;20109;-47
2021/10/09 03:54:01;;;;;;;9.77;5.70;;;;;;;15.44;62.01;101377.13;4974688;28;20050;-48
2021/10/09 03:56:27;;;;;;;10.98;5.82;;;;;;;15.41;62.31;101380.59;4987623;28;20054;-47
2021/10/09 03:59:04;;;;;;;9.48;4.90;;;;;;;15.37;61.77;101374.50;4989328;28;20109;-47
2021/10/09 04:01:32;;;;;;;9.85;4.65;;;;;;;15.35;61.86;101372.78;4984078;28;20042;-48
2021/10/09 04:03:59;;;;;;;10.15;4.85;;;;;;;15.32;62.26;101371.03;4985752;28;20133;-50
2021/10/09 04:06:25;;;;;;;10.02;5.80;;;;;;;15.29;62.54;101374.53;4985526;28;20085;-47
2021/10/09 04:08:52;;;;;;;9.93;5.85;;;;;;;15.28;61.99;101379.75;4985284;28;20046;-48
2021/10/09 04:11:19;;;;;;;10.35;4.47;;;;;;;15.26;62.41;101384.09;4981547;28;20450;-46
2021/10/09 04:13:45;;;;;;;18.63;10.88;;;;;;;15.22;62.29;101380.63;4984312;28;20094;-48
2021/10/09 04:16:12;;;;;;;18.02;9.57;;;;;;;15.22;62.47;101387.56;4984680;28;20099;-48
2021/10/09 04:18:38;;;;;;;15.30;8.30;;;;;;;15.20;62.41;101386.72;4986697;28;20566;-47
2021/10/09 04:21:05;;;;;;;12.68;5.85;;;;;;;15.18;62.54;101384.09;4990708;28;20465;-47
2021/10/09 04:23:32;;;;;;;11.18;4.88;;;;;;;15.14;62.22;101388.44;4985660;28;20435;-48
2021/10/09 04:25:58;;;;;;;10.27;4.95;;;;;;;15.14;62.16;101391.06;4987579;28;20449;-48
2021/10/09 04:28:25;;;;;;;10.10;5.45;;;;;;;15.12;62.45;101384.97;4981925;28;20159;-47
2021/10/09 04:30:51;;;;;;;9.52;4.78;;;;;;;15.10;62.09;101386.69;4981307;28;20396;-48
2021/10/09 04:33:19;;;;;;;12.05;6.38;;;;;;;15.09;61.75;101387.56;4985533;28;20502;-46
2021/10/09 04:35:46;;;;;;;10.55;5.45;;;;;;;15.06;61.92;101379.75;4984792;28;20057;-48
2021/10/09 04:38:12;;;;;;;12.82;5.85;;;;;;;15.04;61.92;101386.72;4985643;28;20050;-46
2021/10/09 04:40:39;;;;;;;12.38;6.30;;;;;;;15.01;61.62;101391.94;4985715;28;20088;-49
2021/10/09 04:43:06;;;;;;;10.20;5.68;;;;;;;14.99;62.49;101385.84;4986882;28;20112;-48
2021/10/09 04:45:32;;;;;;;9.68;5.38;;;;;;;14.97;62.10;101384.97;4985516;28;20484;-46
2021/10/09 04:48:03;;;;;;;10.02;6.00;;;;;;;14.93;62.59;101391.91;4978870;28;20542;-47
2021/10/09 04:50:30;;;;;;;15.65;8.07;;;;;;;14.93;62.11;101388.44;4983175;28;20074;-45
2021/10/09 04:52:57;;;;;;;15.52;8.88;;;;;;;14.89;62.36;101388.44;4981590;28;20042;-47
2021/10/09 04:55:24;;;;;;;11.40;6.18;;;;;;;14.86;62.06;101388.44;4979248;28;20066;-46
2021/10/09 04:57:50;;;;;;;12.48;6.85;;;;;;;14.86;62.07;101383.22;4982269;28;20097;-47
2021/10/09 05:00:17;;;;;;;12.50;6.90;;;;;;;14.82;61.86;101381.47;4982206;28;20055;-48
2021/10/09 05:02:44;;;;;;;11.48;6.28;;;;;;;14.80;61.99;101385.84;4982070;28;20106;-47
2021/10/09 05:05:10;;;;;;;14.05;7.35;;;;;;;14.76;62.30;101381.47;4986778;28;20454;-49
2021/10/09 05:07:37;;;;;;;12.10;6.18;;;;;;;14.75;62.02;101392.72;4981513;28;20363;-47
2021/10/09 05:10:04;;;;;;;13.90;7.00;;;;;;;14.72;62.56;101384.91;4987276;28;20126;-49
2021/10/09 05:12:31;;;;;;;12.23;6.32;;;;;;;14.70;62.53;101386.66;4985390;28;20101;-46
2021/10/09 05:14:58;;;;;;;18.85;10.05;;;;;;;14.65;62.46;101384.91;4983619;28;20097;-48
2021/10/09 05:17:25;;;;;;;14.90;8.52;;;;;;;14.64;61.66;101383.19;4983913;28;20055;-47
2021/10/09 05:19:51;;;;;;;13.55;7.38;;;;;;;14.61;62.28;101379.69;4984562;28;20062;-48
2021/10/09 05:22:18;;;;;;;12.98;6.80;;;;;;;14.59;62.73;101389.25;4987848;28;20054;-48
2021/10/09 05:24:44;;;;;;;11.68;6.88;;;;;;;14.56;62.10;101384.03;4978031;28;20051;-48
2021/10/09 05:27:11;;;;;;;18.00;7.28;;;;;;;14.54;62.31;101384.03;4970017;28;20644;-49
2021/10/09 05:29:38;;;;;;;14.05;7.85;;;;;;;14.52;62.21;101377.91;4985035;28;20109;-50
2021/10/09 05:32:06;;;;;;;15.65;7.82;;;;;;;14.47;61.79;101385.75;4989986;28;20109;-46
2021/10/09 05:34:33;;;;;;;15.80;7.90;;;;;;;14.46;61.62;101380.53;4988812;28;20101;-45
2021/10/09 05:37:01;;;;;;;25.17;13.00;;;;;;;14.44;62.37;101379.63;4986000;28;20098;-46
2021/10/09 05:39:27;;;;;;;27.23;11.57;;;;;;;14.40;62.52;101389.19;4986764;28;20101;-48
2021/10/09 05:41:54;;;;;;;25.25;12.90;;;;;;;14.36;62.22;101371.81;4986568;28;20051;-46
2021/10/09 05:44:21;;;;;;;18.77;10.43;;;;;;;14.34;61.73;101386.56;4981169;28;20046;-47
2021/10/09 05:46:47;;;;;;;18.65;8.60;;;;;;;14.29;62.27;101391.78;4984545;28;20469;-48
2021/10/09 05:49:15;;;;;;;22.20;10.38;;;;;;;14.26;62.43;101387.41;4988349;28;20466;-46
2021/10/09 05:51:54;;;;;;;26.38;13.00;;;;;;;14.24;62.56;101390.88;4982771;28;20101;-46
2021/10/09 05:54:26;;;;;;;13.90;7.82;;;;;;;14.21;62.01;101394.34;4984489;28;20038;-49
2021/10/09 05:57:06;;;;;;;14.60;7.93;;;;;;;14.17;62.11;101397.81;4988772;28;20054;-48
2021/10/09 06:00:03;;;;;;;14.52;8.02;;;;;;;14.16;62.67;101405.63;4986401;28;21372;-50
2021/10/09 06:25:16;;;;;;;14.27;7.60;;;;;;;14.11;62.64;101403.88;4970086;28;20716;-47
2021/10/09 06:44:19;;;;;;;15.88;8.63;;;;;;;13.52;62.78;101419.16;4951348;28;20058;-46
2021/10/09 06:47:11;;;;;;;15.68;8.73;;;;;;;13.48;62.41;101420.84;4944062;28;20101;-47
2021/10/09 07:00:38;;;;;;;17.23;8.95;;;;;;;13.34;63.53;101427.69;4964336;28;20104;-45
2021/10/09 07:03:04;;;;;;;16.85;9.32;;;;;;;13.32;63.66;101421.56;4983977;28;20054;-46
2021/10/09 07:05:33;;;;;;;17.00;8.02;;;;;;;13.29;62.79;101432.84;4982663;28;20203;-45
2021/10/09 07:08:16;;;;;;;18.50;9.15;;;;;;;13.27;63.48;101429.34;4979957;28;20473;-49
2021/10/09 07:10:46;;;;;;;16.42;8.60;;;;;;;13.24;62.14;101424.09;4980051;28;20113;-45
2021/10/09 07:13:14;;;;;;;17.23;8.40;;;;;;;13.23;63.23;101432.78;4977395;28;20066;-45
2021/10/09 07:15:41;;;;;;;15.90;9.18;;;;;;;13.22;62.33;101431.03;4981276;28;20128;-49
2021/10/09 07:18:11;;;;;;;18.38;9.68;;;;;;;13.20;63.20;101437.94;4981693;28;20061;-47
2021/10/09 07:20:40;;;;;;;17.60;9.98;;;;;;;13.18;63.53;101432.75;4964192;28;20063;-49
2021/10/09 07:23:08;;;;;;;18.33;8.88;;;;;;;13.18;63.53;101442.28;4958022;28;20440;-46
2021/10/09 07:25:35;;;;;;;18.13;9.40;;;;;;;13.17;63.50;101443.16;4953539;28;20573;-46
2021/10/09 07:28:02;;;;;;;15.15;8.57;;;;;;;13.15;63.30;101437.03;4969758;28;20050;-48
2021/10/09 07:30:30;;;;;;;17.15;9.02;;;;;;;13.15;63.18;101437.03;4979032;28;20054;-47
2021/10/09 07:32:57;;;;;;;18.95;9.90;;;;;;;13.14;63.10;101443.13;4979392;28;20046;-48
2021/10/09 07:35:25;;;;;;;19.85;8.80;;;;;;;13.14;62.42;101440.50;4980672;28;20643;-46
2021/10/09 07:37:51;;;;;;;18.85;10.32;;;;;;;13.14;63.01;101443.97;4983953;28;20050;-47
2021/10/09 07:40:19;;;;;;;22.23;11.57;;;;;;;13.13;62.63;101451.78;4977615;28;20097;-46
2021/10/09 07:42:46;;;;;;;18.25;8.80;;;;;;;13.14;63.44;101458.72;4986180;28;20046;-48
2021/10/09 07:45:13;;;;;;;19.70;9.57;;;;;;;13.16;63.96;101456.97;4979793;28;20054;-46
2021/10/09 07:47:41;;;;;;;20.10;10.20;;;;;;;13.17;63.04;101450.94;4982506;28;20054;-46
2021/10/09 07:50:08;;;;;;;18.88;9.63;;;;;;;13.19;64.05;101462.22;4969194;28;20055;-46
2021/10/09 07:52:35;;;;;;;20.80;9.90;;;;;;;13.20;62.92;101464.84;4964968;28;20510;-47
2021/10/09 07:55:03;;;;;;;21.90;10.95;;;;;;;13.21;63.25;101463.13;4958811;28;20043;-47
2021/10/09 07:57:29;;;;;;;19.52;9.73;;;;;;;13.23;63.07;101464.00;4967897;28;20117;-46
2021/10/09 07:59:56;;;;;;;20.23;10.70;;;;;;;13.26;63.48;101463.13;4967799;28;20122;-47
2021/10/09 08:02:22;;;;;;;20.60;10.15;;;;;;;13.27;63.73;101465.75;4981605;28;20046;-46
2021/10/09 08:04:51;;;;;;;22.15;11.23;;;;;;;13.30;63.60;101463.19;4983165;28;20070;-47
2021/10/09 08:07:17;;;;;;;18.88;9.68;;;;;;;13.34;64.13;101472.78;4982004;28;20533;-47
2021/10/09 08:09:44;;;;;;;22.33;11.80;;;;;;;13.37;63.93;101472.81;4986943;28;20050;-48
2021/10/09 08:12:11;;;;;;;31.88;13.45;;;;;;;13.43;63.93;101477.19;4983702;28;21028;-50
2021/10/09 08:14:37;;;;;;;19.40;8.85;;;;;;;13.46;64.23;101474.63;4985614;28;20466;-46
2021/10/09 08:17:04;;;;;;;18.42;9.93;;;;;;;13.51;64.85;101474.66;4981580;28;20090;-47
2021/10/09 08:19:31;;;;;;;21.23;11.05;;;;;;;13.56;63.90;101470.38;4981052;28;20491;-47
2021/10/09 08:22:01;;;;;;;33.55;16.42;;;;;;;13.62;65.66;101475.63;4980103;28;20061;-46
2021/10/09 08:24:37;;;;;;;41.40;17.85;;;;;;;13.69;64.73;101473.06;4978507;28;20125;-45
2021/10/09 08:27:16;;;;;;;35.92;17.00;;;;;;;13.76;65.77;101474.88;4982268;28;20100;-47
2021/10/09 08:35:30;;;;;;;24.48;12.02;;;;;;;13.98;64.90;101477.59;4970360;28;20054;-46
2021/10/09 08:40:44;;;;;;;21.20;11.07;;;;;;;14.11;65.63;101482.03;4972550;28;20054;-48
2021/10/09 08:43:10;;;;;;;26.05;13.60;;;;;;;14.18;65.06;101476.84;4989053;28;20089;-48
2021/10/09 08:45:37;;;;;;;22.58;11.98;;;;;;;14.24;64.36;101489.91;4978586;28;20050;-46
2021/10/09 08:48:04;;;;;;;30.20;16.10;;;;;;;14.30;65.75;101489.94;4969519;28;20055;-49
2021/10/09 08:50:32;;;;;;;22.35;10.88;;;;;;;14.36;65.37;101482.13;4962871;28;20455;-48
2021/10/09 08:53:09;;;;;;;27.02;14.23;;;;;;;14.42;65.21;101496.06;4976746;28;20062;-48
2021/10/09 08:55:39;;;;;;;22.17;11.48;;;;;;;14.49;64.79;101492.63;4984376;28;20050;-47
2021/10/09 08:58:09;;;;;;;;;;;;;;;14.59;65.48;101491.78;4972579;28;20062;-47
2021/10/09 09:00:51;;;;;;;22.60;12.43;;;;;;;14.62;65.42;101486.59;4970586;28;19977;-49
2021/10/09 09:03:25;;;;;;;21.05;11.93;;;;;;;14.73;64.80;101490.97;4985273;28;20117;-46
2021/10/09 09:06:02;;;;;;;22.08;11.48;;;;;;;14.82;65.27;101491.03;4985597;28;20085;-49
2021/10/09 09:08:46;;;;;;;22.60;12.07;;;;;;;14.90;65.11;101494.53;4985894;28;20899;-47
2021/10/09 09:31:33;;;;;;;68.43;25.10;;;;;;;16.07;65.17;101496.28;4973216;28;20054;-46
2021/10/09 09:34:20;;;;;;;113.78;38.10;;;;;;;16.28;65.71;101503.19;4978565;28;20495;-51
2021/10/09 09:37:12;;;;;;;127.10;40.13;;;;;;;16.51;65.43;101496.16;4965483;28;20046;-48
2021/10/09 09:39:42;;;;;;;167.30;50.60;;;;;;;16.76;65.11;101501.28;4963701;28;20086;-46
2021/10/09 09:42:09;;;;;;;119.95;38.83;;;;;;;16.95;64.78;101502.91;4988498;28;20435;-45
2021/10/09 09:44:51;;;;;;;196.05;60.25;;;;;;;17.13;64.25;101495.84;4967542;28;20055;-45
2021/10/09 09:47:18;;;;;;;178.85;54.58;;;;;;;17.34;64.16;101499.19;4982587;28;20538;-49
2021/10/09 09:49:55;;;;;;;162.32;52.90;;;;;;;17.53;64.94;101494.66;4980929;28;20105;-48
2021/10/09 09:52:22;;;;;;;163.55;51.35;;;;;;;17.72;64.76;101495.38;4984860;28;20042;-48
2021/10/09 09:54:51;;;;;;;142.32;48.78;;;;;;;17.98;64.41;101494.25;4987550;28;20053;-50
2021/10/09 09:57:19;;;;;;;252.50;81.82;;;;;;;18.27;63.91;101496.59;4984992;28;20050;-46
2021/10/09 09:59:46;;;;;;;149.98;49.47;;;;;;;18.52;64.10;101494.53;4988562;28;20098;-51
2021/10/09 10:02:16;;;;;;;154.50;57.42;;;;;;;18.77;63.22;101491.56;4987574;28;20046;-49
2021/10/09 10:04:44;;;;;;;269.80;92.72;;;;;;;18.95;63.15;101495.66;4981561;28;20053;-50
2021/10/09 10:07:11;;;;;;;238.50;86.80;;;;;;;19.12;62.62;101497.22;4982928;28;20058;-50
2021/10/09 10:09:38;;;;;;;136.10;55.22;;;;;;;19.29;62.96;101498.72;4981448;28;20058;-51
2021/10/09 10:12:06;;;;;;;196.05;76.93;;;;;;;19.42;62.32;101489.72;4983650;28;20058;-50
2021/10/09 10:14:34;;;;;;;202.27;77.10;;;;;;;19.57;62.38;101500.88;4990535;28;20042;-50
2021/10/09 10:17:00;;;;;;;118.22;46.97;;;;;;;19.70;62.17;101493.66;4984550;28;20050;-49
2021/10/09 10:19:57;;;;;;;111.00;41.45;;;;;;;19.84;61.84;101501.28;4983693;28;20105;-53
2021/10/09 10:22:55;;;;;;;177.52;64.50;;;;;;;19.96;61.42;101495.78;4981172;28;20062;-52
2021/10/09 10:25:29;;;;;;;74.25;27.40;;;;;;;20.04;61.40;101499.16;4968703;28;20399;-52
2021/10/09 10:28:01;;;;;;;155.75;54.70;;;;;;;20.12;61.21;101492.88;4983763;28;20575;-50
2021/10/09 10:30:35;;;;;;;65.43;26.90;;;;;;;20.20;60.32;101498.88;4984887;28;20136;-49
2021/10/09 10:33:23;;;;;;;123.47;47.47;;;;;;;20.25;60.22;101496.16;4985921;28;20077;-49
2021/10/09 10:35:50;;;;;;;46.97;20.35;;;;;;;20.27;58.92;101500.47;4983527;28;20045;-49
2021/10/09 10:38:41;;;;;;;112.57;43.80;;;;;;;20.30;59.74;101494.31;4988247;28;20098;-51
2021/10/09 10:41:11;;;;;;;78.32;31.30;;;;;;;20.34;59.87;101495.09;4980200;28;20109;-50
2021/10/09 10:43:43;;;;;;;96.30;36.42;;;;;;;20.36;59.51;101493.31;4979287;28;20098;-51
2021/10/09 10:46:34;;;;;;;112.93;44.05;;;;;;;20.39;60.15;101493.22;4973730;28;20050;-50
2021/10/09 10:49:23;;;;;;;55.78;25.05;;;;;;;20.42;59.62;101493.16;4952958;28;20083;-51
2021/10/09 10:52:11;;;;;;;87.32;37.13;;;;;;;20.43;59.75;101500.16;4968305;28;20102;-49
2021/10/09 10:55:02;;;;;;;96.30;37.22;;;;;;;20.44;59.68;101495.78;4968407;28;20054;-48
2021/10/09 10:57:29;;;;;;;90.50;35.17;;;;;;;20.45;59.48;101486.97;4973686;28;20046;-53
2021/10/09 11:00:13;;;;;;;68.20;28.48;;;;;;;20.41;59.16;101480.91;4981262;28;20435;-50
2021/10/09 11:02:47;;;;;;;55.92;24.40;;;;;;;20.39;58.30;101482.69;4968462;28;20479;-50
2021/10/09 11:05:16;;;;;;;60.08;25.83;;;;;;;20.41;59.33;101488.81;4981228;28;20050;-49
2021/10/09 11:07:45;;;;;;;69.28;29.70;;;;;;;20.40;59.56;101484.47;4983266;28;20054;-50
2021/10/09 11:10:15;;;;;;;48.05;18.85;;;;;;;20.40;58.89;101487.09;4981364;28;20966;-49
2021/10/09 11:12:45;;;;;;;55.33;24.20;;;;;;;20.39;58.76;101482.69;4982605;28;20042;-49
2021/10/09 11:15:17;;;;;;;61.13;25.48;;;;;;;20.37;59.17;101484.50;4985675;28;20054;-48
2021/10/09 11:17:49;;;;;;;35.38;15.57;;;;;;;20.38;58.39;101483.59;4983689;28;20688;-49
2021/10/09 11:20:20;;;;;;;;;;;;;;;20.37;58.42;101480.09;4983600;28;20093;-49
2021/10/09 11:22:50;;;;;;;55.05;22.35;;;;;;;20.39;58.92;101480.06;4987192;28;19930;-49
2021/10/09 11:25:40;;;;;;;61.55;23.88;;;;;;;20.36;58.17;101475.75;4985895;28;20101;-51
2021/10/09 11:28:29;;;;;;;33.33;15.85;;;;;;;20.37;58.31;101474.00;4977077;28;20112;-49
2021/10/09 11:30:56;;;;;;;41.40;18.95;;;;;;;20.39;58.67;101480.94;4981729;28;20051;-48
2021/10/09 11:33:26;;;;;;;52.55;21.17;;;;;;;20.40;58.63;101481.81;4987047;28;20058;-52
2021/10/09 11:35:54;;;;;;;46.97;20.50;;;;;;;20.40;58.71;101479.19;4982852;28;20046;-50
2021/10/09 11:38:25;;;;;;;41.95;18.58;;;;;;;20.38;58.45;101480.97;4985014;28;20046;-51
2021/10/09 11:40:56;;;;;;;44.00;18.77;;;;;;;20.38;58.89;101470.44;4982688;28;20043;-51
2021/10/09 11:43:47;;;;;;;26.15;12.18;;;;;;;20.36;57.84;101478.38;4986290;28;20050;-48
2021/10/09 11:46:47;;;;;;;35.65;16.20;;;;;;;20.35;58.22;101471.38;4981793;28;20042;-48
2021/10/09 11:55:17;;;;;;;35.20;14.95;;;;;;;20.37;58.31;101479.25;4972679;28;20046;-49
2021/10/09 11:57:44;;;;;;;26.55;13.95;;;;;;;20.40;57.95;101468.66;4979809;28;20050;-49
2021/10/09 12:00:37;;;;;;;26.80;13.52;;;;;;;20.40;58.06;101479.19;4980013;28;20442;-49
2021/10/09 12:03:27;;;;;;;32.72;14.93;;;;;;;20.39;58.00;101473.06;4984844;28;20088;-49
2021/10/09 12:05:58;;;;;;;31.17;15.55;;;;;;;20.42;58.38;101469.47;4949784;28;20498;-49
2021/10/09 12:08:27;;;;;;;26.38;14.23;;;;;;;20.44;58.16;101465.06;4966674;28;20170;-48
2021/10/09 12:11:23;;;;;;;27.02;13.50;;;;;;;20.43;58.18;101468.56;4969310;28;20045;-48
2021/10/09 12:14:10;;;;;;;28.23;14.02;;;;;;;20.45;58.24;101466.78;4949901;28;20521;-49
2021/10/09 12:16:41;;;;;;;25.05;10.63;;;;;;;20.49;57.98;101471.09;4977354;28;20763;-49
2021/10/09 12:19:11;;;;;;;24.55;12.80;;;;;;;20.52;58.24;101462.25;4981571;28;20490;-48
2021/10/09 12:21:57;;;;;;;23.90;11.60;;;;;;;20.55;58.45;101463.06;4977176;28;20125;-50
2021/10/09 12:24:26;;;;;;;21.45;11.70;;;;;;;20.60;57.42;101467.38;4986708;28;20062;-49
2021/10/09 12:27:16;;;;;;;21.00;12.27;;;;;;;20.63;57.81;101459.38;4982127;28;20042;-49
2021/10/09 12:30:08;;;;;;;21.50;11.13;;;;;;;20.67;57.77;101461.06;4987648;28;20057;-46
2021/10/09 12:32:40;;;;;;;23.00;12.00;;;;;;;20.72;57.91;101458.31;4976025;28;20570;-49
2021/10/09 12:35:15;;;;;;;23.77;12.20;;;;;;;20.76;57.84;101455.56;4966276;28;20047;-48
2021/10/09 12:38:04;;;;;;;23.02;12.30;;;;;;;20.80;57.63;101451.97;4982599;28;20585;-49
2021/10/09 12:40:39;;;;;;;;;;;;;;;20.88;57.79;101448.28;4972538;28;20077;-49
2021/10/09 12:43:10;;;;;;;18.35;10.38;;;;;;;20.96;57.72;101443.75;4986794;28;19928;-48
2021/10/09 12:45:37;;;;;;;20.45;10.90;;;;;;;21.02;57.34;101448.88;4992690;28;20065;-49
2021/10/09 12:48:05;;;;;;;19.33;10.82;;;;;;;21.11;57.25;101444.28;4955261;28;20130;-49
2021/10/09 12:50:35;;;;;;;17.70;10.48;;;;;;;21.18;56.74;101440.59;4986876;28;20046;-48
2021/10/09 12:53:02;;;;;;;18.90;10.60;;;;;;;21.26;57.47;101438.63;4991562;28;20054;-50
2021/10/09 12:55:33;;;;;;;19.58;10.35;;;;;;;21.34;56.06;101429.66;4993014;28;20498;-48
2021/10/09 12:58:03;;;;;;;17.88;9.75;;;;;;;21.42;56.39;101428.53;4975379;28;20042;-48
2021/10/09 13:00:32;;;;;;;18.85;10.85;;;;;;;21.50;57.41;101433.63;4987422;28;20097;-48
2021/10/09 13:02:59;;;;;;;16.95;9.90;;;;;;;21.57;56.96;101432.53;4985508;28;20090;-48
2021/10/09 13:05:27;;;;;;;18.15;9.93;;;;;;;21.66;57.10;101431.44;4990618;28;20053;-49